createdAt,value
2022-08-16T00:02:30.454Z,4.03
2022-08-16T00:05:57.522Z,5.13
2022-08-16T00:09:20.962Z,5.25
2022-08-16T00:12:46.914Z,4.95
2022-08-16T00:16:57.995Z,4.45
2022-08-16T00:19:55.043Z,5.15
2022-08-16T00:23:18.293Z,4.57
2022-08-16T00:26:47.785Z,4.82
2022-08-16T00:30:25.952Z,5.28
2022-08-16T00:33:52.222Z,5.13
2022-08-16T00:37:17.047Z,5.40
2022-08-16T00:40:53.538Z,4.40
2022-08-16T00:44:21.225Z,4.90
2022-08-16T00:47:49.297Z,4.65
2022-08-16T00:51:16.089Z,4.35
2022-08-16T00:54:40.786Z,5.15
2022-08-16T00:58:12.689Z,5.70
2022-08-16T01:01:36.736Z,4.85
2022-08-16T01:05:09.438Z,5.18
2022-08-16T01:08:36.981Z,5.22
2022-08-16T01:12:00.781Z,4.88
2022-08-16T01:15:24.917Z,5.35
2022-08-16T01:18:54.127Z,5.18
2022-08-16T01:22:48.254Z,5.25
2022-08-16T01:26:34.231Z,5.60
2022-08-16T01:30:01.341Z,5.60
2022-08-16T01:33:33.323Z,5.05
2022-08-16T01:37:02.205Z,6.18
2022-08-16T01:40:28.276Z,5.00
2022-08-16T01:43:54.662Z,5.35
2022-08-16T01:47:21.062Z,5.70
2022-08-16T01:51:09.299Z,5.93
2022-08-16T01:54:30.746Z,4.97
2022-08-16T01:57:56.271Z,4.85
2022-08-16T02:01:21.922Z,4.75
2022-08-16T02:04:49.048Z,4.75
2022-08-16T02:08:32.847Z,4.97
2022-08-16T02:11:59.588Z,5.50
2022-08-16T02:15:43.806Z,5.63
2022-08-16T02:19:16.132Z,5.75
2022-08-16T02:22:39.816Z,5.13
2022-08-16T02:26:03.297Z,5.18
2022-08-16T02:29:32.136Z,5.32
2022-08-16T02:32:55.869Z,5.60
2022-08-16T02:36:47.873Z,5.10
2022-08-16T02:40:06.673Z,4.15
2022-08-16T02:43:33.986Z,5.53
2022-08-16T02:47:00.645Z,5.72
2022-08-16T02:51:03.098Z,4.65
2022-08-16T02:54:13.708Z,5.00
2022-08-16T02:57:42.444Z,5.57
2022-08-16T03:01:25.339Z,5.05
2022-08-16T03:05:00.704Z,5.38
2022-08-16T03:08:51.007Z,5.38
2022-08-16T03:12:10.104Z,4.90
2022-08-16T03:15:39.836Z,5.03
2022-08-16T03:19:03.248Z,5.05
2022-08-16T03:22:29.998Z,5.30
2022-08-16T03:25:57.241Z,5.05
2022-08-16T03:29:21.700Z,5.55
2022-08-16T03:32:48.024Z,4.88
2022-08-16T03:36:30.350Z,4.72
2022-08-16T03:40:03.001Z,5.63
2022-08-16T03:43:51.437Z,5.60
2022-08-16T03:47:19.122Z,4.63
2022-08-16T03:50:44.190Z,5.50
2022-08-16T03:54:23.545Z,5.43
2022-08-16T03:57:52.252Z,5.13
2022-08-16T04:01:17.118Z,5.30
2022-08-16T04:04:41.974Z,5.18
2022-08-16T04:08:23.443Z,4.80
2022-08-16T04:11:49.945Z,5.05
2022-08-16T04:15:18.521Z,5.18
2022-08-16T04:18:54.307Z,5.32
2022-08-16T04:22:27.749Z,5.65
2022-08-16T04:25:54.229Z,5.63
2022-08-16T04:29:23.920Z,5.15
2022-08-16T04:32:49.217Z,6.00
2022-08-16T04:36:17.162Z,5.75
2022-08-16T04:39:47.290Z,5.60
2022-08-16T04:43:21.256Z,5.97
2022-08-16T04:47:03.227Z,6.60
2022-08-16T04:50:30.629Z,6.32
2022-08-16T04:54:11.002Z,7.28
2022-08-16T04:57:36.247Z,6.22
2022-08-16T05:01:00.068Z,5.82
2022-08-16T05:04:23.933Z,6.35
2022-08-16T05:07:58.370Z,7.10
2022-08-16T05:11:31.879Z,6.25
2022-08-16T05:15:01.956Z,6.35
2022-08-16T05:18:28.717Z,6.53
2022-08-16T05:21:55.536Z,6.75
2022-08-16T05:25:19.327Z,6.40
2022-08-16T05:28:47.560Z,5.85
2022-08-16T05:32:32.381Z,6.97
2022-08-16T05:36:03.866Z,6.28
2022-08-16T05:39:40.782Z,6.20
2022-08-16T05:43:05.097Z,6.18
2022-08-16T05:46:31.233Z,6.75
2022-08-16T05:50:19.015Z,6.60
2022-08-16T05:53:43.921Z,6.03
2022-08-16T05:57:13.443Z,6.10
2022-08-16T06:00:37.244Z,6.45
2022-08-16T06:04:00.534Z,6.30
2022-08-16T06:07:31.965Z,6.38
2022-08-16T06:11:10.197Z,6.88
2022-08-16T06:14:34.583Z,6.32
2022-08-16T06:18:00.475Z,5.13
2022-08-16T06:21:24.827Z,6.57
2022-08-16T06:24:56.386Z,6.70
2022-08-16T06:28:36.700Z,7.70
2022-08-16T06:32:04.216Z,6.97
2022-08-16T06:35:28.002Z,5.78
2022-08-16T06:39:06.151Z,6.05
2022-08-16T06:42:57.326Z,5.55
2022-08-16T06:46:34.392Z,5.05
2022-08-16T06:50:29.699Z,6.20
2022-08-16T06:53:58.225Z,6.63
2022-08-16T06:57:21.459Z,5.53
2022-08-16T07:00:45.955Z,5.50
2022-08-16T07:04:10.508Z,7.07
2022-08-16T07:07:36.358Z,6.78
2022-08-16T07:11:01.522Z,8.18
2022-08-16T07:14:28.354Z,7.60
2022-08-16T07:17:56.363Z,6.88
2022-08-16T07:21:19.506Z,6.85
2022-08-16T07:24:45.876Z,8.18
2022-08-16T07:28:12.158Z,7.15
2022-08-16T07:31:44.418Z,7.28
2022-08-16T07:35:10.270Z,7.65
2022-08-16T07:38:34.252Z,7.22
2022-08-16T07:41:59.425Z,6.03
2022-08-16T07:45:22.737Z,6.45
2022-08-16T07:48:48.162Z,5.40
2022-08-16T07:52:20.095Z,7.22
2022-08-16T07:55:47.810Z,6.72
2022-08-16T07:59:16.934Z,6.07
2022-08-16T08:02:40.499Z,6.43
2022-08-16T08:06:11.926Z,6.97
2022-08-16T08:09:36.486Z,5.97
2022-08-16T08:13:08.294Z,8.48
2022-08-16T08:16:32.745Z,9.15
2022-08-16T08:19:56.390Z,10.57
2022-08-16T08:23:20.951Z,9.20
2022-08-16T08:26:50.365Z,9.63
2022-08-16T08:30:51.982Z,9.88
2022-08-16T08:33:59.910Z,9.35
2022-08-16T08:37:23.613Z,10.57
2022-08-16T08:40:51.262Z,10.40
2022-08-16T08:44:29.157Z,9.63
2022-08-16T08:47:58.905Z,9.55
2022-08-16T08:51:27.576Z,9.13
2022-08-16T08:54:56.245Z,9.18
2022-08-16T08:58:19.541Z,9.30
2022-08-16T09:01:58.608Z,9.98
2022-08-16T09:05:37.349Z,9.00
2022-08-16T09:09:04.020Z,9.75
2022-08-16T09:12:36.179Z,9.60
2022-08-16T09:16:10.407Z,8.65
2022-08-16T09:19:40.967Z,7.45
2022-08-16T09:23:04.653Z,9.23
2022-08-16T09:26:45.866Z,9.68
2022-08-16T09:30:34.706Z,10.27
2022-08-16T09:33:54.282Z,8.23
2022-08-16T09:37:19.861Z,8.10
2022-08-16T09:40:52.691Z,7.80
2022-08-16T09:45:09.075Z,8.90
2022-08-16T09:47:59.909Z,8.93
2022-08-16T09:51:26.216Z,7.75
2022-08-16T09:54:56.045Z,8.60
2022-08-16T09:58:37.741Z,8.75
2022-08-16T10:02:27.305Z,9.48
2022-08-16T10:05:46.861Z,8.10
2022-08-16T10:09:11.613Z,9.05
2022-08-16T10:12:55.886Z,7.32
2022-08-16T10:16:22.002Z,7.93
2022-08-16T10:19:47.079Z,7.90
2022-08-16T10:23:16.981Z,8.70
2022-08-16T10:27:17.977Z,8.00
2022-08-16T10:30:28.497Z,9.40
2022-08-16T10:33:54.097Z,8.70
2022-08-16T10:37:17.339Z,7.47
2022-08-16T10:40:56.017Z,7.45
2022-08-16T10:44:19.092Z,7.30
2022-08-16T10:47:43.510Z,7.88
2022-08-16T10:51:08.218Z,7.70
2022-08-16T10:54:32.045Z,8.95
2022-08-16T10:57:57.212Z,9.15
2022-08-16T11:01:43.250Z,7.55
2022-08-16T11:05:08.774Z,7.45
2022-08-16T11:08:36.206Z,7.53
2022-08-16T11:12:13.987Z,8.50
2022-08-16T11:15:39.042Z,8.43
2022-08-16T11:19:12.450Z,8.07
2022-08-16T11:22:47.654Z,8.52
2022-08-16T11:26:24.174Z,8.60
2022-08-16T11:29:47.604Z,7.35
2022-08-16T11:33:11.219Z,9.00
2022-08-16T11:36:34.260Z,7.20
2022-08-16T11:39:59.930Z,8.65
2022-08-16T11:43:26.444Z,8.85
2022-08-16T11:46:49.715Z,7.55
2022-08-16T11:50:16.952Z,8.07
2022-08-16T11:53:42.333Z,7.70
2022-08-16T11:57:09.305Z,7.38
2022-08-16T12:00:50.485Z,7.20
2022-08-16T12:04:14.609Z,8.00
2022-08-16T12:07:38.348Z,8.55
2022-08-16T12:11:02.736Z,6.82
2022-08-16T12:14:27.309Z,7.18
2022-08-16T12:17:53.832Z,6.78
2022-08-16T12:21:17.342Z,6.70
2022-08-16T12:24:43.026Z,7.68
2022-08-16T12:28:08.441Z,7.30
2022-08-16T12:31:33.138Z,6.55
2022-08-16T12:34:56.148Z,6.82
2022-08-16T12:38:41.252Z,6.85
2022-08-16T12:42:02.973Z,7.03
2022-08-16T12:45:28.783Z,7.10
2022-08-16T12:48:59.339Z,6.32
2022-08-16T12:52:33.331Z,6.72
2022-08-16T12:55:57.495Z,7.15
2022-08-16T12:59:21.907Z,5.35
2022-08-16T13:02:48.031Z,6.88
2022-08-16T13:06:14.716Z,6.90
2022-08-16T13:09:52.409Z,6.82
2022-08-16T13:13:24.440Z,6.90
2022-08-16T13:16:47.542Z,6.88
2022-08-16T13:20:16.155Z,7.35
2022-08-16T13:23:43.665Z,6.50
2022-08-16T13:27:07.094Z,7.57
2022-08-16T13:30:41.651Z,6.85
2022-08-16T13:34:09.397Z,6.55
2022-08-16T13:37:33.464Z,6.68
2022-08-16T13:41:02.292Z,7.00
2022-08-16T13:44:48.861Z,6.45
2022-08-16T13:48:09.425Z,7.65
2022-08-16T13:51:34.044Z,6.38
2022-08-16T13:54:58.145Z,6.80
2022-08-16T13:58:36.697Z,7.75
2022-08-16T14:02:04.009Z,7.07
2022-08-16T14:05:28.636Z,6.47
2022-08-16T14:08:59.092Z,6.30
2022-08-16T14:12:32.714Z,6.53
2022-08-16T14:15:57.245Z,6.50
2022-08-16T14:19:22.589Z,6.72
2022-08-16T14:22:45.872Z,6.60
2022-08-16T14:26:16.100Z,6.70
2022-08-16T14:29:39.511Z,6.15
2022-08-16T14:33:04.734Z,6.80
2022-08-16T14:36:30.158Z,7.63
2022-08-16T14:39:53.647Z,6.60
2022-08-16T14:43:16.721Z,6.07
2022-08-16T14:46:39.816Z,6.72
2022-08-16T14:50:07.780Z,6.32
2022-08-16T14:53:32.804Z,6.90
2022-08-16T14:56:55.971Z,6.57
2022-08-16T15:00:20.110Z,6.45
2022-08-16T15:03:44.791Z,6.03
2022-08-16T15:07:12.498Z,6.82
2022-08-16T15:10:37.311Z,6.78
2022-08-16T15:14:06.330Z,6.50
2022-08-16T15:17:34.077Z,6.30
2022-08-16T15:21:00.594Z,7.15
2022-08-16T15:24:25.349Z,6.53
2022-08-16T15:27:54.694Z,6.65
2022-08-16T15:31:18.987Z,6.05
2022-08-16T15:34:44.704Z,6.05
2022-08-16T15:38:09.131Z,5.97
2022-08-16T15:42:01.058Z,6.15
2022-08-16T15:45:39.778Z,5.90
2022-08-16T15:49:09.154Z,6.55
2022-08-16T15:52:34.489Z,6.03
2022-08-16T15:55:58.509Z,6.30
2022-08-16T15:59:24.098Z,6.30
2022-08-16T16:02:50.657Z,6.03
2022-08-16T16:06:16.958Z,6.18
2022-08-16T16:09:43.058Z,5.80
2022-08-16T16:13:09.255Z,6.70
2022-08-16T16:16:34.443Z,6.18
2022-08-16T16:19:57.774Z,6.53
2022-08-16T16:23:25.286Z,6.07
2022-08-16T16:26:49.277Z,6.10
2022-08-16T16:30:33.331Z,6.00
2022-08-16T16:34:00.761Z,6.30
2022-08-16T16:37:23.799Z,6.25
2022-08-16T16:40:54.158Z,6.10
2022-08-16T16:44:18.253Z,5.07
2022-08-16T16:47:49.232Z,5.68
2022-08-16T16:51:19.526Z,6.65
2022-08-16T16:54:42.655Z,5.93
2022-08-16T16:58:35.423Z,7.05
2022-08-16T17:02:38.849Z,6.00
2022-08-16T17:05:43.882Z,5.75
2022-08-16T17:09:21.518Z,5.55
2022-08-16T17:12:46.958Z,5.30
2022-08-16T17:16:18.578Z,5.30
2022-08-16T17:19:42.434Z,6.00
2022-08-16T17:23:06.256Z,5.88
2022-08-16T17:26:33.550Z,5.75
2022-08-16T17:29:57.712Z,5.40
2022-08-16T17:33:23.202Z,5.70
2022-08-16T17:36:53.340Z,5.40
2022-08-16T17:40:40.693Z,6.38
2022-08-16T17:44:02.145Z,5.50
2022-08-16T17:47:25.137Z,5.65
2022-08-16T17:50:48.161Z,5.25
2022-08-16T17:54:30.075Z,5.78
2022-08-16T17:57:54.654Z,5.72
2022-08-16T18:01:23.794Z,5.30
2022-08-16T18:04:49.528Z,5.43
2022-08-16T18:08:13.210Z,5.72
2022-08-16T18:11:41.205Z,6.15
2022-08-16T18:15:07.506Z,5.75
2022-08-16T18:18:31.910Z,5.13
2022-08-16T18:22:15.035Z,4.97
2022-08-16T18:25:40.467Z,5.78
2022-08-16T18:29:04.028Z,5.40
2022-08-16T18:32:27.538Z,5.70
2022-08-16T18:35:57.110Z,5.32
2022-08-16T18:39:20.778Z,5.95
2022-08-16T18:42:55.435Z,6.07
2022-08-16T18:46:18.665Z,5.30
2022-08-16T18:49:41.701Z,5.45
2022-08-16T18:53:09.951Z,6.57
2022-08-16T18:56:55.248Z,6.03
2022-08-16T19:00:16.599Z,5.88
2022-08-16T19:03:39.649Z,6.32
2022-08-16T19:07:02.692Z,6.30
2022-08-16T19:10:27.157Z,6.07
2022-08-16T19:13:51.097Z,6.00
2022-08-16T19:17:14.174Z,5.28
2022-08-16T19:20:38.519Z,6.10
2022-08-16T19:24:01.661Z,5.53
2022-08-16T19:27:33.690Z,5.68
2022-08-16T19:30:57.177Z,5.40
2022-08-16T19:34:20.444Z,5.22
2022-08-16T19:37:46.269Z,5.03
2022-08-16T19:41:09.952Z,5.47
2022-08-16T19:44:34.477Z,5.53
2022-08-16T19:48:03.620Z,6.22
2022-08-16T19:51:26.898Z,5.18
2022-08-16T19:54:52.598Z,4.90
2022-08-16T19:58:16.959Z,5.13
2022-08-16T20:01:43.099Z,5.85
2022-08-16T20:05:07.119Z,5.45
2022-08-16T20:08:30.505Z,6.15
2022-08-16T20:11:54.696Z,5.72
2022-08-16T20:15:19.768Z,4.78
2022-08-16T20:18:47.070Z,5.32
2022-08-16T20:22:51.686Z,5.85
2022-08-16T20:26:05.735Z,5.60
2022-08-16T20:29:28.988Z,4.68
2022-08-16T20:32:53.372Z,4.95
2022-08-16T20:36:18.101Z,5.22
2022-08-16T20:39:44.079Z,6.07
2022-08-16T20:43:09.809Z,5.65
2022-08-16T20:46:32.913Z,5.70
2022-08-16T20:50:02.374Z,5.55
2022-08-16T20:53:26.774Z,5.22
2022-08-16T20:56:50.002Z,5.10
2022-08-16T21:00:14.649Z,5.53
2022-08-16T21:03:38.207Z,5.57
2022-08-16T21:07:01.296Z,5.68
2022-08-16T21:10:26.007Z,7.13
2022-08-16T21:13:49.168Z,8.20
2022-08-16T21:17:16.096Z,7.55
2022-08-16T21:20:39.516Z,8.10
2022-08-16T21:24:02.658Z,8.60
2022-08-16T21:27:27.097Z,7.72
2022-08-16T21:30:51.310Z,8.00
2022-08-16T21:34:14.399Z,7.93
2022-08-16T21:37:37.507Z,8.15
2022-08-16T21:41:01.468Z,7.20
2022-08-16T21:44:32.523Z,8.80
2022-08-16T21:48:03.085Z,7.35
2022-08-16T21:51:26.178Z,8.13
2022-08-16T21:54:49.289Z,8.70
2022-08-16T21:58:17.082Z,7.07
2022-08-16T22:01:43.099Z,7.32
2022-08-16T22:05:06.761Z,7.40
2022-08-16T22:08:30.758Z,7.53
2022-08-16T22:11:53.756Z,7.93
2022-08-16T22:15:24.871Z,7.72
2022-08-16T22:18:52.079Z,8.00
2022-08-16T22:22:15.639Z,7.20
2022-08-16T22:25:39.629Z,7.88
2022-08-16T22:29:05.787Z,8.00
2022-08-16T22:32:29.013Z,8.80
2022-08-16T22:35:55.077Z,8.10
2022-08-16T22:39:18.137Z,9.23
2022-08-16T22:42:47.569Z,8.63
2022-08-16T22:46:10.640Z,9.63
2022-08-16T22:49:33.833Z,9.43
2022-08-16T22:52:58.660Z,8.60
2022-08-16T22:56:22.021Z,7.50
2022-08-16T22:59:45.129Z,7.90
2022-08-16T23:03:11.165Z,8.00
2022-08-16T23:06:34.180Z,8.68
2022-08-16T23:09:59.708Z,8.43
2022-08-16T23:13:24.475Z,8.82
2022-08-16T23:16:48.053Z,8.25
2022-08-16T23:20:12.289Z,8.90
2022-08-16T23:23:35.737Z,8.32
2022-08-16T23:27:00.475Z,9.35
2022-08-16T23:30:25.538Z,9.23
2022-08-16T23:33:48.689Z,9.57
2022-08-16T23:37:11.772Z,8.85
2022-08-16T23:40:36.126Z,8.43
2022-08-16T23:44:01.773Z,8.90
2022-08-16T23:47:44.757Z,8.48
2022-08-16T23:51:09.500Z,8.35
2022-08-16T23:54:32.498Z,9.07
2022-08-16T23:57:55.670Z,9.35
